createdAt,value
2018-04-25T00:01:49.525Z,56.08
2018-04-25T00:04:19.087Z,55.55
2018-04-25T00:06:48.448Z,55.67
2018-04-25T00:09:18.211Z,56.43
2018-04-25T00:11:46.557Z,56.17
2018-04-25T00:14:15.149Z,56.29
2018-04-25T00:16:45.085Z,56.53
2018-04-25T00:19:15.876Z,56.56
2018-04-25T00:21:45.768Z,56.95
2018-04-25T00:24:14.834Z,57.53
2018-04-25T00:26:44.412Z,58.10
2018-04-25T00:29:14.195Z,58.52
2018-04-25T00:31:43.404Z,58.90
2018-04-25T00:34:11.904Z,60.81
2018-04-25T00:36:40.999Z,60.67
2018-04-25T00:39:09.546Z,60.33
2018-04-25T00:41:39.707Z,60.53
2018-04-25T00:44:08.408Z,60.81
2018-04-25T00:46:36.729Z,60.92
2018-04-25T00:49:06.148Z,61.00
2018-04-25T00:51:34.858Z,60.90
2018-04-25T00:54:04.196Z,60.78
2018-04-25T00:56:32.549Z,60.70
2018-04-25T00:59:02.336Z,61.32
2018-04-25T01:01:30.899Z,61.39
2018-04-25T01:04:00.115Z,61.37
2018-04-25T01:06:31.057Z,61.65
2018-04-25T01:08:59.965Z,61.85
2018-04-25T01:11:29.472Z,62.16
2018-04-25T01:13:58.062Z,62.66
2018-04-25T01:16:26.505Z,62.44
2018-04-25T01:18:55.753Z,62.77
2018-04-25T01:21:24.995Z,63.37
2018-04-25T01:23:54.168Z,62.97
2018-04-25T01:26:23.372Z,63.02
2018-04-25T01:28:56.654Z,62.65
2018-04-25T01:31:37.314Z,62.52
2018-04-25T01:34:16.767Z,63.47
2018-04-25T01:36:59.725Z,63.57
2018-04-25T01:40:03.598Z,64.45
2018-04-25T01:45:37.573Z,64.60
2018-04-25T01:51:22.648Z,64.91
2018-04-25T01:54:08.752Z,64.99
2018-04-25T01:56:55.081Z,65.28
2018-04-25T01:59:44.715Z,65.09
2018-04-25T02:02:19.050Z,65.50
2018-04-25T02:04:47.955Z,65.68
2018-04-25T02:07:18.764Z,66.39
2018-04-25T02:09:47.805Z,66.30
2018-04-25T02:12:17.095Z,65.60
2018-04-25T02:14:45.698Z,66.05
2018-04-25T02:17:14.944Z,66.23
2018-04-25T02:19:44.353Z,66.64
2018-04-25T02:22:12.669Z,66.85
2018-04-25T02:24:41.552Z,66.72
2018-04-25T02:27:09.946Z,67.21
2018-04-25T02:29:38.371Z,67.10
2018-04-25T02:32:06.737Z,67.02
2018-04-25T02:34:36.519Z,67.49
2018-04-25T02:37:05.097Z,66.86
2018-04-25T02:39:33.452Z,66.83
2018-04-25T02:42:02.347Z,67.15
2018-04-25T02:44:32.778Z,67.26
2018-04-25T02:47:02.308Z,67.62
2018-04-25T02:49:32.331Z,67.20
2018-04-25T02:52:02.555Z,67.46
2018-04-25T02:54:30.926Z,67.32
2018-04-25T02:57:00.224Z,67.41
2018-04-25T02:59:29.348Z,66.96
2018-04-25T03:04:32.232Z,67.05
2018-04-25T03:07:01.620Z,67.34
2018-04-25T03:09:30.885Z,67.47
2018-04-25T03:12:02.950Z,67.50
2018-04-25T03:14:32.557Z,67.65
2018-04-25T03:17:01.869Z,67.66
2018-04-25T03:19:31.742Z,67.75
2018-04-25T03:22:01.208Z,68.75
2018-04-25T03:24:30.484Z,68.47
2018-04-25T03:26:59.575Z,68.08
2018-04-25T03:29:29.361Z,67.95
2018-04-25T03:31:58.032Z,68.31
2018-04-25T03:34:26.994Z,67.87
2018-04-25T03:36:55.305Z,69.12
2018-04-25T03:39:23.753Z,69.02
2018-04-25T03:41:52.572Z,69.44
2018-04-25T03:44:20.946Z,69.47
2018-04-25T03:46:50.832Z,69.79
2018-04-25T03:49:21.136Z,69.89
2018-04-25T03:51:49.915Z,69.76
2018-04-25T03:54:18.281Z,69.70
2018-04-25T03:56:48.334Z,69.48
2018-04-25T03:59:18.312Z,69.76
2018-04-25T04:01:47.481Z,69.62
2018-04-25T04:04:15.950Z,69.43
2018-04-25T04:06:44.783Z,69.73
2018-04-25T04:09:14.133Z,70.71
2018-04-25T04:11:42.487Z,70.29
2018-04-25T04:14:12.158Z,70.63
2018-04-25T04:16:42.699Z,70.63
2018-04-25T04:19:13.500Z,70.71
2018-04-25T04:21:41.909Z,70.79
2018-04-25T04:24:10.853Z,70.99
2018-04-25T04:26:40.502Z,70.95
2018-04-25T04:29:08.862Z,70.29
2018-04-25T04:31:39.225Z,70.34
2018-04-25T04:34:10.079Z,70.07
2018-04-25T04:36:38.450Z,70.34
2018-04-25T04:39:07.275Z,70.75
2018-04-25T04:41:35.711Z,70.78
2018-04-25T04:44:05.940Z,71.16
2018-04-25T04:46:34.548Z,70.95
2018-04-25T04:49:02.965Z,70.71
2018-04-25T04:51:32.222Z,70.68
2018-04-25T04:54:01.191Z,70.67
2018-04-25T04:56:30.740Z,70.93
2018-04-25T04:59:00.647Z,71.03
2018-04-25T05:01:31.323Z,71.01
2018-04-25T05:03:59.674Z,70.77
2018-04-25T05:06:28.814Z,70.99
2018-04-25T05:08:57.165Z,70.60
2018-04-25T05:11:26.372Z,70.83
2018-04-25T05:13:55.810Z,70.82
2018-04-25T05:16:25.806Z,70.71
2018-04-25T05:18:56.543Z,70.74
2018-04-25T05:21:26.562Z,70.67
2018-04-25T05:23:55.714Z,70.58
2018-04-25T05:26:24.126Z,70.42
2018-04-25T05:28:53.525Z,70.65
2018-04-25T05:31:22.746Z,70.20
2018-04-25T05:33:51.815Z,70.27
2018-04-25T05:36:21.379Z,70.49
2018-04-25T05:38:51.703Z,70.32
2018-04-25T05:41:23.052Z,70.58
2018-04-25T05:43:52.413Z,70.29
2018-04-25T05:46:23.505Z,70.38
2018-04-25T05:48:53.499Z,70.86
2018-04-25T05:51:22.917Z,70.46
2018-04-25T05:53:52.661Z,69.97
2018-04-25T05:56:23.050Z,70.42
2018-04-25T05:58:52.309Z,69.99
2018-04-25T06:01:21.605Z,70.02
2018-04-25T06:03:53.065Z,70.07
2018-04-25T06:06:22.617Z,69.66
2018-04-25T06:08:50.952Z,69.30
2018-04-25T06:11:19.343Z,69.23
2018-04-25T06:13:47.989Z,69.24
2018-04-25T06:16:16.878Z,69.25
2018-04-25T06:18:46.079Z,69.54
2018-04-25T06:21:15.316Z,69.16
2018-04-25T06:23:44.498Z,68.94
2018-04-25T06:26:13.234Z,68.70
2018-04-25T06:28:41.820Z,68.47
2018-04-25T06:31:11.381Z,68.41
2018-04-25T06:33:40.839Z,68.02
2018-04-25T06:36:10.020Z,68.43
2018-04-25T06:38:38.396Z,67.85
2018-04-25T06:41:07.688Z,66.76
2018-04-25T06:43:36.052Z,67.50
2018-04-25T06:46:05.259Z,67.08
2018-04-25T06:48:35.656Z,66.56
2018-04-25T06:51:04.829Z,65.78
2018-04-25T06:53:33.173Z,65.99
2018-04-25T06:56:03.918Z,65.04
2018-04-25T06:58:32.504Z,65.25
2018-04-25T07:01:01.900Z,63.85
2018-04-25T07:03:31.485Z,63.62
2018-04-25T07:06:00.677Z,63.87
2018-04-25T07:08:29.036Z,64.23
2018-04-25T07:10:58.816Z,64.93
2018-04-25T07:13:28.933Z,64.22
2018-04-25T07:15:57.145Z,63.91
2018-04-25T07:18:26.499Z,64.14
2018-04-25T07:20:55.317Z,64.91
2018-04-25T07:23:24.141Z,65.04
2018-04-25T07:25:53.258Z,64.87
2018-04-25T07:28:22.366Z,64.53
2018-04-25T07:30:51.727Z,64.57
2018-04-25T07:33:22.653Z,64.91
2018-04-25T07:35:50.988Z,64.56
2018-04-25T07:38:20.548Z,63.79
2018-04-25T07:40:49.759Z,64.27
2018-04-25T07:43:19.862Z,63.56
2018-04-25T07:45:49.090Z,64.00
2018-04-25T07:48:18.281Z,63.83
2018-04-25T07:50:47.836Z,63.34
2018-04-25T07:53:16.257Z,63.41
2018-04-25T07:55:46.283Z,63.66
2018-04-25T07:58:15.863Z,63.32
2018-04-25T08:00:46.015Z,62.15
2018-04-25T08:03:15.439Z,61.95
2018-04-25T08:05:45.647Z,61.55
2018-04-25T08:08:14.033Z,61.30
2018-04-25T08:10:42.393Z,60.25
2018-04-25T08:13:23.214Z,60.33
2018-04-25T08:16:03.670Z,60.39
2018-04-25T08:18:45.394Z,60.82
2018-04-25T08:21:27.320Z,58.57
2018-04-25T08:23:58.317Z,58.44
2018-04-25T08:26:27.478Z,59.26
2018-04-25T08:28:57.614Z,57.44
2018-04-25T08:31:27.731Z,58.01
2018-04-25T08:33:57.882Z,58.25
2018-04-25T08:36:27.283Z,58.47
2018-04-25T08:38:56.433Z,58.65
2018-04-25T08:41:25.695Z,58.75
2018-04-25T08:43:54.954Z,58.10
2018-04-25T08:46:24.087Z,56.99
2018-04-25T08:48:53.514Z,56.90
2018-04-25T08:51:22.600Z,56.98
2018-04-25T08:53:52.447Z,58.09
2018-04-25T08:56:22.460Z,57.31
2018-04-25T08:58:52.028Z,58.15
2018-04-25T09:01:21.464Z,57.96
2018-04-25T09:03:51.519Z,58.29
2018-04-25T09:06:20.201Z,58.28
2018-04-25T09:08:48.616Z,58.83
2018-04-25T09:11:17.016Z,60.75
2018-04-25T09:13:45.361Z,61.23
2018-04-25T09:16:14.680Z,60.88
2018-04-25T09:18:44.732Z,61.81
2018-04-25T09:21:13.942Z,61.91
2018-04-25T09:23:42.263Z,61.66
2018-04-25T09:26:11.583Z,60.68
2018-04-25T09:28:40.871Z,61.36
2018-04-25T09:31:10.461Z,61.17
2018-04-25T09:33:41.040Z,61.26
2018-04-25T09:36:09.796Z,60.65
2018-04-25T09:38:40.075Z,61.06
2018-04-25T09:41:08.847Z,60.76
2018-04-25T09:43:38.160Z,60.41
2018-04-25T09:46:07.315Z,60.94
2018-04-25T09:48:36.391Z,61.04
2018-04-25T09:51:05.407Z,60.40
2018-04-25T09:53:34.126Z,61.14
2018-04-25T09:56:03.894Z,59.65
2018-04-25T09:58:33.439Z,60.06
2018-04-25T10:01:06.591Z,60.12
2018-04-25T10:03:42.866Z,60.18
2018-04-25T10:06:13.182Z,59.64
2018-04-25T10:08:42.936Z,60.02
2018-04-25T10:11:11.470Z,60.46
2018-04-25T10:13:40.872Z,60.43
2018-04-25T10:16:10.036Z,60.18
2018-04-25T10:18:38.807Z,60.02
2018-04-25T10:21:07.177Z,58.92
2018-04-25T10:23:35.509Z,60.38
2018-04-25T10:26:05.645Z,60.43
2018-04-25T10:28:35.896Z,59.38
2018-04-25T10:31:04.529Z,58.89
2018-04-25T10:33:33.439Z,59.67
2018-04-25T10:36:02.115Z,59.39
2018-04-25T10:38:31.195Z,59.64
2018-04-25T10:40:59.968Z,58.56
2018-04-25T10:43:30.004Z,58.97
2018-04-25T10:45:59.121Z,59.56
2018-04-25T10:48:29.317Z,59.84
2018-04-25T10:50:57.920Z,59.50
2018-04-25T10:53:26.753Z,61.78
2018-04-25T10:55:55.721Z,62.66
2018-04-25T10:58:25.664Z,61.56
2018-04-25T11:00:54.695Z,61.37
2018-04-25T11:03:25.085Z,60.33
2018-04-25T11:05:54.288Z,59.92
2018-04-25T11:08:23.845Z,59.14
2018-04-25T11:10:54.087Z,60.40
2018-04-25T11:13:23.116Z,62.28
2018-04-25T11:15:51.456Z,64.53
2018-04-25T11:18:20.763Z,65.87
2018-04-25T11:20:49.659Z,67.59
2018-04-25T11:23:19.084Z,70.22
2018-04-25T11:25:47.925Z,71.09
2018-04-25T11:28:17.103Z,72.62
2018-04-25T11:30:46.992Z,73.49
2018-04-25T11:33:15.341Z,73.52
2018-04-25T11:35:45.563Z,73.71
2018-04-25T11:38:15.262Z,72.32
2018-04-25T11:40:44.401Z,71.06
2018-04-25T11:43:13.515Z,70.92
2018-04-25T11:45:42.989Z,72.84
2018-04-25T11:48:12.813Z,72.82
2018-04-25T11:50:42.985Z,72.20
2018-04-25T11:53:11.546Z,71.18
2018-04-25T11:55:40.682Z,70.90
2018-04-25T11:58:10.005Z,71.02
2018-04-25T12:00:38.943Z,73.75
2018-04-25T12:03:08.331Z,72.78
2018-04-25T12:05:38.567Z,73.62
2018-04-25T12:08:07.781Z,72.36
2018-04-25T12:10:37.918Z,72.29
2018-04-25T12:13:06.601Z,74.33
2018-04-25T12:15:36.364Z,75.73
2018-04-25T12:18:05.614Z,75.58
2018-04-25T12:20:34.052Z,75.58
2018-04-25T12:23:05.901Z,75.98
2018-04-25T12:25:35.614Z,76.84
2018-04-25T12:28:04.453Z,77.13
2018-04-25T12:30:33.561Z,79.00
2018-04-25T12:33:01.934Z,78.55
2018-04-25T12:35:31.685Z,79.20
2018-04-25T12:38:00.754Z,78.45
2018-04-25T12:40:29.157Z,77.46
2018-04-25T12:42:59.203Z,78.64
2018-04-25T12:45:27.998Z,77.87
2018-04-25T12:48:03.874Z,74.77
2018-04-25T12:50:33.875Z,74.37
2018-04-25T12:53:02.593Z,73.52
2018-04-25T12:55:33.232Z,71.91
2018-04-25T12:58:01.972Z,71.67
2018-04-25T13:00:30.627Z,68.17
2018-04-25T13:03:00.178Z,70.17
2018-04-25T13:05:28.935Z,70.01
2018-04-25T13:07:59.809Z,66.68
2018-04-25T13:10:29.601Z,66.17
2018-04-25T13:12:59.643Z,64.11
2018-04-25T13:15:27.975Z,63.18
2018-04-25T13:17:56.421Z,65.01
2018-04-25T13:20:25.261Z,64.52
2018-04-25T13:22:53.679Z,65.41
2018-04-25T13:25:22.019Z,64.61
2018-04-25T13:27:51.155Z,66.44
2018-04-25T13:30:21.087Z,66.58
2018-04-25T13:32:50.519Z,66.61
2018-04-25T13:35:21.122Z,64.92
2018-04-25T13:37:49.503Z,65.63
2018-04-25T13:40:18.166Z,65.33
2018-04-25T13:42:47.064Z,66.17
2018-04-25T13:45:16.956Z,66.69
2018-04-25T13:47:46.835Z,66.71
2018-04-25T13:50:15.221Z,66.32
2018-04-25T13:52:44.391Z,66.20
2018-04-25T13:55:12.771Z,64.64
2018-04-25T13:57:41.336Z,64.59
2018-04-25T14:00:09.755Z,61.72
2018-04-25T14:02:40.140Z,61.02
2018-04-25T14:05:10.167Z,61.04
2018-04-25T14:07:39.719Z,62.65
2018-04-25T14:10:08.124Z,63.30
2018-04-25T14:12:36.501Z,64.49
2018-04-25T14:15:05.049Z,62.77
2018-04-25T14:17:35.595Z,65.34
2018-04-25T14:20:06.061Z,65.07
2018-04-25T14:22:34.697Z,64.48
2018-04-25T14:25:04.237Z,64.23
2018-04-25T14:27:34.229Z,64.94
2018-04-25T14:30:03.559Z,64.23
2018-04-25T14:32:32.724Z,65.17
2018-04-25T14:35:01.688Z,64.98
2018-04-25T14:37:30.068Z,63.27
2018-04-25T14:39:58.817Z,63.57
2018-04-25T14:42:27.903Z,64.19
2018-04-25T14:44:56.225Z,63.51
2018-04-25T14:47:24.613Z,63.81
2018-04-25T14:49:54.208Z,64.10
2018-04-25T14:52:23.509Z,64.04
2018-04-25T14:54:53.573Z,63.19
2018-04-25T14:57:21.972Z,62.73
2018-04-25T14:59:50.288Z,60.13
2018-04-25T15:02:19.554Z,60.83
2018-04-25T15:04:49.797Z,61.03
2018-04-25T15:07:18.409Z,61.82
2018-04-25T15:09:46.750Z,58.86
2018-04-25T15:12:15.929Z,56.03
2018-04-25T15:14:45.801Z,57.21
2018-04-25T15:17:15.049Z,61.65
2018-04-25T15:19:43.542Z,61.93
2018-04-25T15:22:12.942Z,61.01
2018-04-25T15:24:42.468Z,58.77
2018-04-25T15:27:11.456Z,56.10
2018-04-25T15:29:40.879Z,56.34
2018-04-25T15:32:10.762Z,49.10
2018-04-25T15:34:39.088Z,48.12
2018-04-25T15:37:09.308Z,43.74
2018-04-25T15:39:39.608Z,43.28
2018-04-25T15:42:07.944Z,42.91
2018-04-25T15:44:36.935Z,41.61
2018-04-25T15:47:06.316Z,41.17
2018-04-25T15:49:34.803Z,41.79
2018-04-25T15:52:03.434Z,41.69
2018-04-25T15:54:31.790Z,41.27
2018-04-25T15:57:01.247Z,39.94
2018-04-25T15:59:30.532Z,39.29
2018-04-25T16:01:59.279Z,39.70
2018-04-25T16:04:30.406Z,39.64
2018-04-25T16:07:00.904Z,39.61
2018-04-25T16:09:30.192Z,39.84
2018-04-25T16:11:58.821Z,39.76
2018-04-25T16:14:28.996Z,39.40
2018-04-25T16:16:58.029Z,40.66
2018-04-25T16:19:26.991Z,40.56
2018-04-25T16:21:56.338Z,38.75
2018-04-25T16:24:25.176Z,38.76
2018-04-25T16:26:54.372Z,40.03
2018-04-25T16:29:22.693Z,41.60
2018-04-25T16:31:52.749Z,40.63
2018-04-25T16:34:21.845Z,40.97
2018-04-25T16:36:50.241Z,41.84
2018-04-25T16:39:19.136Z,43.22
2018-04-25T16:41:47.742Z,42.50
2018-04-25T16:44:17.904Z,42.96
2018-04-25T16:46:46.238Z,43.13
2018-04-25T16:49:14.630Z,41.00
2018-04-25T16:51:45.033Z,41.35
2018-04-25T16:54:15.377Z,40.81
2018-04-25T16:56:43.944Z,41.78
2018-04-25T16:59:12.356Z,41.33
2018-04-25T17:01:40.683Z,41.43
2018-04-25T17:04:11.381Z,42.06
2018-04-25T17:06:40.579Z,42.35
2018-04-25T17:09:09.347Z,42.51
2018-04-25T17:11:39.330Z,42.67
2018-04-25T17:14:08.698Z,43.54
2018-04-25T17:16:40.162Z,43.75
2018-04-25T17:19:08.568Z,44.12
2018-04-25T17:21:36.930Z,42.39
2018-04-25T17:24:05.370Z,42.74
2018-04-25T17:26:34.705Z,43.10
2018-04-25T17:29:04.707Z,43.90
2018-04-25T17:31:33.765Z,43.29
2018-04-25T17:34:04.636Z,43.48
2018-04-25T17:36:34.372Z,42.94
2018-04-25T17:39:03.792Z,43.61
2018-04-25T17:41:33.487Z,44.43
2018-04-25T17:44:02.328Z,43.89
2018-04-25T17:46:32.029Z,43.21
2018-04-25T17:49:01.116Z,43.86
2018-04-25T17:51:29.932Z,43.49
2018-04-25T17:53:59.438Z,43.58
2018-04-25T17:56:28.711Z,44.11
2018-04-25T17:58:57.970Z,44.99
2018-04-25T18:01:27.069Z,46.39
2018-04-25T18:03:56.337Z,46.26
2018-04-25T18:06:25.447Z,45.80
2018-04-25T18:08:54.570Z,45.49
2018-04-25T18:11:23.380Z,46.48
2018-04-25T18:13:52.443Z,46.17
2018-04-25T18:16:20.796Z,46.06
2018-04-25T18:18:49.765Z,45.92
2018-04-25T18:21:20.421Z,46.53
2018-04-25T18:23:51.985Z,47.18
2018-04-25T18:26:23.133Z,46.80
2018-04-25T18:28:51.759Z,46.05
2018-04-25T18:31:21.387Z,45.56
2018-04-25T18:33:50.007Z,44.98
2018-04-25T18:36:19.630Z,45.80
2018-04-25T18:38:47.976Z,44.90
2018-04-25T18:41:17.128Z,44.99
2018-04-25T18:43:46.064Z,44.90
2018-04-25T18:46:14.378Z,44.51
2018-04-25T18:48:43.782Z,44.89
2018-04-25T18:51:12.180Z,45.11
2018-04-25T18:53:40.830Z,45.52
2018-04-25T18:56:10.299Z,45.72
2018-04-25T18:58:38.733Z,45.66
2018-04-25T19:01:08.027Z,45.75
2018-04-25T19:03:36.666Z,45.40
2018-04-25T19:06:05.012Z,46.16
2018-04-25T19:08:34.095Z,45.80
2018-04-25T19:11:03.223Z,45.73
2018-04-25T19:13:32.641Z,45.79
2018-04-25T19:16:00.969Z,46.08
2018-04-25T19:18:29.367Z,45.74
2018-04-25T19:20:58.541Z,46.19
2018-04-25T19:23:27.453Z,46.76
2018-04-25T19:25:58.441Z,46.47
2018-04-25T19:28:28.330Z,47.09
2018-04-25T19:30:58.541Z,46.83
2018-04-25T19:33:27.949Z,47.06
2018-04-25T19:35:56.360Z,46.94
2018-04-25T19:38:25.536Z,47.25
2018-04-25T19:40:54.829Z,47.40
2018-04-25T19:43:23.253Z,47.55
2018-04-25T19:45:53.378Z,49.47
2018-04-25T19:48:23.791Z,49.25
2018-04-25T19:50:52.408Z,50.18
2018-04-25T19:53:24.435Z,52.24
2018-04-25T19:55:53.467Z,52.66
2018-04-25T19:58:22.218Z,53.80
2018-04-25T20:00:52.537Z,53.09
2018-04-25T20:03:21.429Z,52.31
2018-04-25T20:05:50.672Z,52.25
2018-04-25T20:08:19.088Z,53.02
2018-04-25T20:10:48.318Z,52.48
2018-04-25T20:13:16.749Z,54.29
2018-04-25T20:15:45.140Z,55.98
2018-04-25T20:18:14.649Z,57.31
2018-04-25T20:20:45.600Z,59.75
2018-04-25T20:23:14.672Z,60.33
2018-04-25T20:25:42.992Z,60.91
2018-04-25T20:28:13.274Z,62.00
2018-04-25T20:30:42.664Z,62.04
2018-04-25T20:33:12.010Z,61.99
2018-04-25T20:35:40.838Z,62.07
2018-04-25T20:38:10.519Z,63.12
2018-04-25T20:40:38.970Z,63.67
2018-04-25T20:43:07.677Z,64.47
2018-04-25T20:45:36.816Z,63.45
2018-04-25T20:48:05.595Z,63.80
2018-04-25T20:50:35.468Z,64.28
2018-04-25T20:53:04.773Z,64.63
2018-04-25T20:55:33.980Z,63.50
2018-04-25T20:58:03.117Z,62.01
2018-04-25T21:00:32.845Z,63.80
2018-04-25T21:03:01.413Z,64.46
2018-04-25T21:05:31.883Z,64.34
2018-04-25T21:08:01.651Z,63.87
2018-04-25T21:10:30.813Z,63.42
2018-04-25T21:12:59.172Z,63.64
2018-04-25T21:15:29.544Z,63.74
2018-04-25T21:17:57.903Z,63.04
2018-04-25T21:20:27.744Z,62.85
2018-04-25T21:22:57.221Z,63.69
2018-04-25T21:25:25.574Z,63.72
2018-04-25T21:27:53.884Z,64.03
2018-04-25T21:30:22.503Z,64.77
2018-04-25T21:32:52.837Z,64.23
2018-04-25T21:35:22.219Z,64.81
2018-04-25T21:37:50.667Z,64.00
2018-04-25T21:40:18.999Z,64.21
2018-04-25T21:42:48.607Z,65.11
2018-04-25T21:45:17.184Z,63.19
2018-04-25T21:47:46.344Z,61.80
2018-04-25T21:50:16.293Z,61.45
2018-04-25T21:52:48.125Z,60.69
2018-04-25T21:55:16.832Z,60.45
2018-04-25T21:57:45.165Z,61.08
2018-04-25T22:00:13.769Z,61.45
2018-04-25T22:02:42.198Z,62.19
2018-04-25T22:05:10.591Z,61.82
2018-04-25T22:07:39.573Z,62.14
2018-04-25T22:10:08.451Z,61.20
2018-04-25T22:12:38.171Z,61.17
2018-04-25T22:15:06.528Z,61.79
2018-04-25T22:17:35.223Z,62.74
2018-04-25T22:20:04.414Z,63.52
2018-04-25T22:22:34.337Z,63.99
2018-04-25T22:25:02.678Z,64.85
2018-04-25T22:27:32.028Z,64.07
2018-04-25T22:30:00.422Z,64.06
2018-04-25T22:32:29.736Z,64.21
2018-04-25T22:34:58.422Z,64.09
2018-04-25T22:37:28.078Z,64.18
2018-04-25T22:39:57.735Z,65.41
2018-04-25T22:42:26.707Z,62.77
2018-04-25T22:44:56.181Z,62.83
2018-04-25T22:47:26.071Z,62.32
2018-04-25T22:49:54.429Z,62.57
2018-04-25T22:52:23.045Z,62.83
2018-04-25T22:54:52.170Z,63.70
2018-04-25T22:57:22.741Z,63.25
2018-04-25T22:59:51.133Z,63.51
2018-04-25T23:02:19.735Z,64.69
2018-04-25T23:04:48.601Z,63.50
2018-04-25T23:07:17.975Z,62.97
2018-04-25T23:09:46.358Z,61.51
2018-04-25T23:12:15.797Z,60.62
2018-04-25T23:14:44.471Z,60.04
2018-04-25T23:17:12.909Z,60.10
2018-04-25T23:19:41.267Z,60.12
2018-04-25T23:22:09.603Z,59.30
2018-04-25T23:24:38.968Z,59.77
2018-04-25T23:27:08.004Z,60.61
2018-04-25T23:29:36.423Z,61.41
2018-04-25T23:32:05.691Z,61.64
2018-04-25T23:34:34.585Z,62.32
2018-04-25T23:37:04.286Z,62.47
2018-04-25T23:39:33.559Z,63.25
2018-04-25T23:42:01.903Z,63.22
2018-04-25T23:44:30.952Z,64.59
2018-04-25T23:46:59.947Z,64.85
2018-04-25T23:49:31.517Z,65.63
2018-04-25T23:52:00.696Z,65.58
2018-04-25T23:54:29.053Z,65.71
2018-04-25T23:56:59.659Z,64.23
2018-04-25T23:59:28.038Z,63.50
